Time;durP1;ratioP1;P1;durP2;ratioP2;P2;SDS_P1;SDS_P2;PMS_P1;PMS_P2;Temp;Humidity;BMP_temperature;BMP_pressure;BME280_temperature;BME280_humidity;BME280_pressure;Samples;Min_cycle;Max_cycle;Signal;HPM_P1;HPM_P2
2021/09/15 00:02:19;;;;;;;11.97;10.80;;;20.30;82.60;;;;;;4951899;28;20446;-46
2021/09/15 00:04:46;;;;;;;12.53;11.00;;;20.20;82.70;;;;;;4956445;28;20489;-46
2021/09/15 00:07:13;;;;;;;10.97;9.90;;;20.20;82.70;;;;;;4953352;28;20445;-47
2021/09/15 00:09:40;;;;;;;16.33;11.43;;;20.20;82.70;;;;;;4950390;28;20502;-47
2021/09/15 00:12:07;;;;;;;15.80;11.27;;;20.20;82.70;;;;;;4955734;28;20451;-46
2021/09/15 00:14:34;;;;;;;11.93;10.73;;;20.20;82.70;;;;;;4956900;28;20489;-46
2021/09/15 00:17:01;;;;;;;13.17;11.63;;;20.20;82.80;;;;;;4952762;28;20492;-46
2021/09/15 00:19:28;;;;;;;13.40;12.10;;;20.10;82.90;;;;;;4950073;28;20456;-46
2021/09/15 00:21:54;;;;;;;13.77;12.37;;;20.10;82.90;;;;;;4954188;29;20457;-47
2021/09/15 00:24:21;;;;;;;13.27;11.97;;;20.10;82.90;;;;;;4951625;28;20450;-47
2021/09/15 00:26:48;;;;;;;13.03;11.73;;;20.10;83.00;;;;;;4956860;28;20821;-47
2021/09/15 00:29:15;;;;;;;13.47;11.70;;;20.10;82.90;;;;;;4954628;28;20463;-47
2021/09/15 00:31:42;;;;;;;13.23;11.83;;;20.10;82.80;;;;;;4958539;28;20450;-46
2021/09/15 00:34:08;;;;;;;13.30;11.97;;;20.10;82.70;;;;;;4958453;28;20461;-47
2021/09/15 00:36:35;;;;;;;13.17;11.90;;;20.10;82.60;;;;;;4952104;28;20499;-47
2021/09/15 00:39:02;;;;;;;12.70;11.47;;;20.10;82.60;;;;;;4953359;28;20451;-47
2021/09/15 00:41:28;;;;;;;12.63;11.33;;;20.00;82.80;;;;;;4955508;28;20459;-46
2021/09/15 00:44:14;;;;;;;12.00;10.80;;;20.00;82.60;;;;;;4958222;28;20455;-46
2021/09/15 00:46:41;;;;;;;13.13;11.77;;;20.00;82.60;;;;;;4951858;28;20447;-46
2021/09/15 00:49:09;;;;;;;12.77;11.57;;;20.00;82.60;;;;;;4951013;28;20847;-46
2021/09/15 00:51:38;;;;;;;14.70;13.07;;;20.00;82.60;;;;;;4956190;29;20957;-46
2021/09/15 00:54:07;;;;;;;13.93;12.60;;;20.00;82.60;;;;;;4953731;29;20503;-46
2021/09/15 00:56:34;;;;;;;11.77;10.57;;;19.90;82.80;;;;;;4957362;28;20490;-46
2021/09/15 00:59:04;;;;;;;13.23;11.83;;;19.90;83.00;;;;;;4954243;28;20459;-47
2021/09/15 01:01:34;;;;;;;12.90;11.60;;;19.90;83.10;;;;;;4954427;28;20840;-47
2021/09/15 01:04:05;;;;;;;12.57;11.37;;;19.90;83.10;;;;;;4958281;28;20443;-47
2021/09/15 01:06:33;;;;;;;12.50;11.30;;;19.80;83.10;;;;;;4957301;28;20477;-47
2021/09/15 01:09:02;;;;;;;15.77;12.67;;;19.80;83.30;;;;;;4950672;28;20495;-46
2021/09/15 01:11:29;;;;;;;13.80;12.50;;;19.80;83.50;;;;;;4954137;28;20469;-47
2021/09/15 01:13:57;;;;;;;14.90;12.30;;;19.80;83.60;;;;;;4952719;28;20860;-47
2021/09/15 01:16:23;;;;;;;14.53;12.83;;;19.70;83.70;;;;;;4957546;28;20470;-47
2021/09/15 01:18:50;;;;;;;13.33;11.93;;;19.70;83.80;;;;;;4952814;28;20462;-47
2021/09/15 01:21:17;;;;;;;14.23;12.10;;;19.70;83.90;;;;;;4953343;28;20447;-47
2021/09/15 01:23:44;;;;;;;13.97;12.57;;;19.70;83.80;;;;;;4954109;28;20546;-46
2021/09/15 01:26:12;;;;;;;14.83;13.30;;;19.70;83.90;;;;;;4949545;28;20539;-47
2021/09/15 01:28:39;;;;;;;16.30;13.07;;;19.70;84.00;;;;;;4953835;28;20827;-47
2021/09/15 01:31:06;;;;;;;14.87;13.33;;;19.70;84.10;;;;;;4956258;28;20443;-47
2021/09/15 01:33:33;;;;;;;15.17;13.67;;;19.70;84.10;;;;;;4957312;28;20973;-46
2021/09/15 01:35:59;;;;;;;16.53;13.80;;;19.70;84.10;;;;;;4953391;28;20451;-46
2021/09/15 01:38:26;;;;;;;15.37;13.77;;;19.70;84.30;;;;;;4951202;28;20495;-47
2021/09/15 01:40:53;;;;;;;14.80;13.23;;;19.60;84.40;;;;;;4959906;28;20465;-47
2021/09/15 01:43:19;;;;;;;14.47;12.97;;;19.60;84.50;;;;;;4954388;29;20466;-47
2021/09/15 01:49:29;;;;;;;14.00;12.70;;;19.70;84.60;;;;;;4945129;28;20434;-46
2021/09/15 01:51:57;;;;;;;14.23;12.63;;;19.70;84.60;;;;;;4953465;28;20463;-46
2021/09/15 01:54:24;;;;;;;15.60;13.87;;;19.70;84.60;;;;;;4951166;28;20475;-47
2021/09/15 01:56:52;;;;;;;14.50;13.10;;;19.60;84.60;;;;;;4951936;29;20501;-47
2021/09/15 01:59:19;;;;;;;14.63;13.07;;;19.70;84.60;;;;;;4945762;28;20450;-46
2021/09/15 02:01:45;;;;;;;15.87;14.20;;;19.70;84.60;;;;;;4954953;28;20447;-47
2021/09/15 02:04:12;;;;;;;14.70;13.20;;;19.70;84.50;;;;;;4954172;28;20812;-46
2021/09/15 02:06:39;;;;;;;15.37;13.67;;;19.70;84.50;;;;;;4956105;28;20538;-46
2021/09/15 02:09:07;;;;;;;15.57;13.87;;;19.60;84.50;;;;;;4955098;28;20455;-47
2021/09/15 02:11:36;;;;;;;14.80;12.90;;;19.60;84.60;;;;;;4954968;28;20534;-47
2021/09/15 02:14:03;;;;;;;14.27;12.87;;;19.70;84.40;;;;;;4952475;28;20478;-46
2021/09/15 02:16:31;;;;;;;15.83;13.70;;;19.70;84.30;;;;;;4951144;28;20835;-47
2021/09/15 02:18:57;;;;;;;15.17;13.67;;;19.60;84.40;;;;;;4951679;28;20467;-47
2021/09/15 02:21:25;;;;;;;14.70;13.20;;;19.60;84.50;;;;;;4950454;28;20980;-47
2021/09/15 02:23:52;;;;;;;16.67;14.20;;;19.60;84.50;;;;;;4952087;28;20469;-47
2021/09/15 02:26:19;;;;;;;15.30;13.60;;;19.60;84.50;;;;;;4947174;28;20458;-42
2021/09/15 02:28:45;;;;;;;13.43;12.03;;;19.60;84.50;;;;;;4948100;28;20866;-42
2021/09/15 02:31:12;;;;;;;16.43;12.97;;;19.60;84.40;;;;;;4947675;28;20462;-42
2021/09/15 02:33:39;;;;;;;16.43;12.67;;;19.60;84.40;;;;;;4948082;28;20663;-42
2021/09/15 02:36:06;;;;;;;15.33;12.70;;;19.60;84.40;;;;;;4950491;28;20852;-42
2021/09/15 02:38:32;;;;;;;15.13;13.40;;;19.50;84.50;;;;;;4946880;29;20495;-42
2021/09/15 02:40:59;;;;;;;16.30;13.07;;;19.60;84.30;;;;;;4931812;29;20451;-42
2021/09/15 02:43:26;;;;;;;15.93;14.30;;;19.60;84.30;;;;;;4947007;28;21042;-42
2021/09/15 02:45:53;;;;;;;17.57;13.40;;;19.60;84.30;;;;;;4948708;28;20443;-42
2021/09/15 02:48:21;;;;;;;16.70;14.57;;;19.50;84.30;;;;;;4946712;28;20620;-42
2021/09/15 02:50:48;;;;;;;16.53;13.50;;;19.50;84.30;;;;;;4949742;28;20454;-41
2021/09/15 02:53:17;;;;;;;15.00;13.07;;;19.50;84.30;;;;;;4946976;28;20471;-42
2021/09/15 02:55:44;;;;;;;15.47;12.87;;;19.50;84.30;;;;;;4950479;28;20451;-42
2021/09/15 02:58:11;;;;;;;16.00;13.67;;;19.50;84.30;;;;;;4949526;28;20887;-42
2021/09/15 03:00:38;;;;;;;20.43;13.60;;;19.40;84.30;;;;;;4947904;28;20538;-42
2021/09/15 03:03:05;;;;;;;14.27;12.83;;;19.40;84.30;;;;;;4948036;28;20518;-42
2021/09/15 03:05:32;;;;;;;16.43;13.90;;;19.40;84.30;;;;;;4948591;28;20473;-42
2021/09/15 03:07:59;;;;;;;15.60;12.90;;;19.50;84.10;;;;;;4950097;28;20468;-42
2021/09/15 03:10:27;;;;;;;14.50;13.10;;;19.40;84.20;;;;;;4951058;28;20809;-43
2021/09/15 03:12:54;;;;;;;15.80;12.97;;;19.40;84.40;;;;;;4947336;28;20459;-42
2021/09/15 03:15:21;;;;;;;17.47;13.33;;;19.40;84.40;;;;;;4949038;28;20447;-42
2021/09/15 03:17:47;;;;;;;17.63;14.03;;;19.40;84.50;;;;;;4946938;28;20490;-42
2021/09/15 03:20:14;;;;;;;16.07;14.43;;;19.40;84.70;;;;;;4946693;28;20451;-42
2021/09/15 03:22:41;;;;;;;16.47;13.70;;;19.30;84.80;;;;;;4946814;28;20535;-43
2021/09/15 03:25:09;;;;;;;16.40;13.67;;;19.30;85.00;;;;;;4943357;28;20455;-42
2021/09/15 03:27:35;;;;;;;16.20;14.60;;;19.30;85.10;;;;;;4948894;28;20458;-42
2021/09/15 03:30:06;;;;;;;14.90;12.80;;;19.30;85.20;;;;;;4957030;28;20474;-42
2021/09/15 03:32:33;;;;;;;15.63;13.90;;;19.30;85.30;;;;;;4943246;28;20467;-42
2021/09/15 03:35:00;;;;;;;16.47;14.47;;;19.30;85.40;;;;;;4949006;28;20452;-42
2021/09/15 03:37:27;;;;;;;14.50;13.10;;;19.30;85.40;;;;;;4948523;28;20494;-42
2021/09/15 03:39:53;;;;;;;14.03;12.77;;;19.30;85.50;;;;;;4944434;28;20447;-42
2021/09/15 03:42:20;;;;;;;14.97;13.43;;;19.30;85.40;;;;;;4949185;28;20453;-42
2021/09/15 03:44:47;;;;;;;18.90;14.70;;;19.30;85.50;;;;;;4950302;29;20447;-42
2021/09/15 03:47:14;;;;;;;16.03;14.43;;;19.30;85.50;;;;;;4949715;28;20462;-42
2021/09/15 03:49:45;;;;;;;17.13;13.63;;;19.30;85.50;;;;;;4953802;28;20465;-42
2021/09/15 03:52:12;;;;;;;15.53;13.93;;;19.30;85.50;;;;;;4949550;28;20450;-42
2021/09/15 03:54:38;;;;;;;14.33;12.63;;;19.30;85.50;;;;;;4946748;28;20962;-42
2021/09/15 03:57:05;;;;;;;15.27;13.67;;;19.30;85.50;;;;;;4949891;28;20455;-42
2021/09/15 03:59:32;;;;;;;15.70;14.10;;;19.30;85.40;;;;;;4952940;28;20539;-42
2021/09/15 04:01:59;;;;;;;14.53;13.13;;;19.30;85.50;;;;;;4953533;28;20466;-42
2021/09/15 04:04:25;;;;;;;14.63;12.50;;;19.30;85.60;;;;;;4935787;29;20459;-42
2021/09/15 04:06:52;;;;;;;14.00;12.40;;;19.30;85.60;;;;;;4951540;28;20451;-42
2021/09/15 04:09:20;;;;;;;15.13;12.90;;;19.40;85.40;;;;;;4948073;28;20498;-42
2021/09/15 04:11:47;;;;;;;14.57;13.00;;;19.40;85.50;;;;;;4950594;28;20529;-42
2021/09/15 04:14:13;;;;;;;14.57;12.63;;;19.30;85.60;;;;;;4950181;28;20495;-42
2021/09/15 04:16:40;;;;;;;18.53;14.10;;;19.30;85.60;;;;;;4944967;28;20480;-42
2021/09/15 04:19:07;;;;;;;17.93;14.50;;;19.30;85.70;;;;;;4949686;28;20570;-42
2021/09/15 04:21:34;;;;;;;13.97;12.13;;;19.30;85.80;;;;;;4950542;28;20455;-42
2021/09/15 04:32:04;;;;;;;18.17;14.47;;;19.30;86.10;;;;;;4946348;28;20553;-42
2021/09/15 04:34:31;;;;;;;14.53;13.03;;;19.30;86.20;;;;;;4949364;28;20563;-42
2021/09/15 04:36:57;;;;;;;15.90;14.30;;;19.30;86.30;;;;;;4946829;28;20455;-42
2021/09/15 04:39:24;;;;;;;14.80;13.30;;;19.30;86.40;;;;;;4951708;29;20450;-42
2021/09/15 04:41:51;;;;;;;17.47;15.63;;;19.30;86.50;;;;;;4945693;28;20456;-42
2021/09/15 04:44:18;;;;;;;17.47;14.60;;;19.30;86.50;;;;;;4947650;28;20454;-43
2021/09/15 04:46:45;;;;;;;17.90;15.07;;;19.30;86.70;;;;;;4950423;28;21020;-42
2021/09/15 04:49:11;;;;;;;17.10;14.10;;;19.30;86.70;;;;;;4951774;28;20466;-42
2021/09/15 04:51:38;;;;;;;17.80;14.93;;;19.30;86.80;;;;;;4951077;28;21143;-42
2021/09/15 04:54:07;;;;;;;16.80;14.53;;;19.30;87.00;;;;;;4948633;28;20451;-42
2021/09/15 04:56:33;;;;;;;16.80;15.10;;;19.40;86.80;;;;;;4950393;28;20980;-42
2021/09/15 04:59:00;;;;;;;15.97;14.37;;;19.40;86.80;;;;;;4948616;28;20491;-42
2021/09/15 05:01:27;;;;;;;16.33;14.07;;;19.40;86.90;;;;;;4949320;28;20469;-43
2021/09/15 05:03:54;;;;;;;20.47;14.73;;;19.40;86.90;;;;;;4949494;28;20973;-42
2021/09/15 05:06:20;;;;;;;15.77;14.20;;;19.40;87.00;;;;;;4949362;28;20467;-42
2021/09/15 05:08:47;;;;;;;17.13;14.77;;;19.30;87.00;;;;;;4951528;28;20511;-42
2021/09/15 05:11:14;;;;;;;20.43;14.37;;;19.30;87.10;;;;;;4949537;29;20458;-42
2021/09/15 05:13:41;;;;;;;17.83;14.57;;;19.30;87.20;;;;;;4950471;28;21020;-42
2021/09/15 05:16:07;;;;;;;17.57;15.27;;;19.30;87.20;;;;;;4947463;28;20471;-42
2021/09/15 05:18:34;;;;;;;15.93;14.27;;;19.30;87.20;;;;;;4951248;28;20491;-42
2021/09/15 05:21:01;;;;;;;18.23;14.93;;;19.30;87.30;;;;;;4950672;29;20461;-42
2021/09/15 05:23:28;;;;;;;17.80;14.90;;;19.30;87.40;;;;;;4944581;28;20455;-42
2021/09/15 05:25:55;;;;;;;16.97;15.10;;;19.30;87.30;;;;;;4951357;28;20864;-42
2021/09/15 05:28:21;;;;;;;17.70;15.90;;;19.40;87.40;;;;;;4946089;28;20540;-42
2021/09/15 05:30:49;;;;;;;17.30;14.27;;;19.40;87.20;;;;;;4949753;28;20455;-42
2021/09/15 05:33:16;;;;;;;17.00;15.13;;;19.40;87.10;;;;;;4947796;28;20464;-42
2021/09/15 05:35:43;;;;;;;18.53;16.53;;;19.40;87.10;;;;;;4949073;28;20451;-42
2021/09/15 05:38:09;;;;;;;19.57;15.50;;;19.40;87.20;;;;;;4945449;28;20900;-42
2021/09/15 05:40:36;;;;;;;17.60;15.70;;;19.40;87.20;;;;;;4949978;28;20459;-42
2021/09/15 05:43:04;;;;;;;19.07;17.10;;;19.40;87.30;;;;;;4948009;28;20443;-42
2021/09/15 05:45:32;;;;;;;27.10;17.87;;;19.40;87.30;;;;;;4949829;28;20831;-42
2021/09/15 05:47:58;;;;;;;17.60;15.70;;;19.40;87.40;;;;;;4945684;28;20458;-42
2021/09/15 05:50:25;;;;;;;23.50;17.43;;;19.40;87.50;;;;;;4946045;28;20483;-42
2021/09/15 05:52:52;;;;;;;18.13;15.90;;;19.40;87.50;;;;;;4951505;28;20838;-42
2021/09/15 05:55:19;;;;;;;16.20;14.53;;;19.50;87.60;;;;;;4946377;29;20458;-42
2021/09/15 05:57:45;;;;;;;22.13;17.50;;;19.60;87.40;;;;;;4949238;28;20496;-42
2021/09/15 06:00:12;;;;;;;18.80;15.40;;;19.50;87.40;;;;;;4949313;28;20538;-42
2021/09/15 06:02:56;;;;;;;19.33;17.17;;;19.50;87.70;;;;;;4945003;29;20494;-42
2021/09/15 06:05:23;;;;;;;20.70;17.13;;;19.50;88.00;;;;;;4947612;28;20464;-42
2021/09/15 06:07:50;;;;;;;21.87;17.33;;;19.50;88.40;;;;;;4948169;28;20822;-42
2021/09/15 06:10:17;;;;;;;19.10;17.23;;;19.50;88.60;;;;;;4943177;28;20448;-41
2021/09/15 06:12:43;;;;;;;21.83;18.87;;;19.50;88.80;;;;;;4934181;29;20462;-42
2021/09/15 06:15:10;;;;;;;20.83;17.53;;;19.50;88.90;;;;;;4950014;28;20802;-42
2021/09/15 06:17:37;;;;;;;21.83;19.57;;;19.50;89.10;;;;;;4952795;28;20451;-42
2021/09/15 06:20:05;;;;;;;22.30;19.30;;;19.50;89.20;;;;;;4947445;28;20964;-42
2021/09/15 06:22:31;;;;;;;19.90;17.07;;;19.50;89.30;;;;;;4949770;28;20966;-42
2021/09/15 06:24:59;;;;;;;21.90;19.60;;;19.50;89.50;;;;;;4948950;28;20535;-41
2021/09/15 06:27:26;;;;;;;23.27;19.07;;;19.50;89.60;;;;;;4947064;28;20452;-42
2021/09/15 06:29:52;;;;;;;24.37;21.83;;;19.50;89.70;;;;;;4945052;28;20454;-41
2021/09/15 06:32:21;;;;;;;26.40;22.17;;;19.50;89.80;;;;;;4949724;28;20960;-41
2021/09/15 06:34:48;;;;;;;24.47;21.90;;;19.50;89.80;;;;;;4943392;28;20469;-42
2021/09/15 06:37:16;;;;;;;28.80;22.80;;;19.60;89.80;;;;;;4950850;28;20840;-42
2021/09/15 06:39:43;;;;;;;28.63;21.77;;;19.60;89.80;;;;;;4949827;28;20487;-42
2021/09/15 06:42:10;;;;;;;27.20;22.00;;;19.60;89.80;;;;;;4942912;28;20844;-42
2021/09/15 06:44:36;;;;;;;25.27;20.97;;;19.60;89.80;;;;;;4950874;28;20506;-42
2021/09/15 06:47:03;;;;;;;24.47;21.87;;;19.60;89.80;;;;;;4947379;28;20985;-42
2021/09/15 06:49:30;;;;;;;23.73;19.87;;;19.60;89.80;;;;;;4945948;28;20455;-42
2021/09/15 06:51:57;;;;;;;21.20;19.00;;;19.60;89.80;;;;;;4948739;28;20459;-42
2021/09/15 06:54:23;;;;;;;23.23;20.73;;;19.60;89.80;;;;;;4945356;28;20451;-42
2021/09/15 06:56:50;;;;;;;22.90;20.10;;;19.70;89.80;;;;;;4950258;28;20454;-42
2021/09/15 06:59:17;;;;;;;23.63;20.37;;;19.70;89.80;;;;;;4947735;28;20483;-42
2021/09/15 07:01:44;;;;;;;27.33;22.20;;;19.70;89.80;;;;;;4948646;28;20447;-42
2021/09/15 07:04:11;;;;;;;24.77;22.17;;;19.70;89.80;;;;;;4949471;28;20982;-42
2021/09/15 07:06:38;;;;;;;26.97;22.70;;;19.80;89.80;;;;;;4946441;28;20987;-42
2021/09/15 07:09:05;;;;;;;34.37;23.80;;;19.80;89.80;;;;;;4943911;28;20463;-43
2021/09/15 07:11:31;;;;;;;31.90;24.77;;;19.80;89.80;;;;;;4950169;28;20985;-43
2021/09/15 07:14:03;;;;;;;30.03;25.60;;;19.80;89.80;;;;;;4942895;28;20505;-43
2021/09/15 07:16:31;;;;;;;32.10;24.00;;;19.90;89.80;;;;;;4947074;28;20459;-42
2021/09/15 07:19:01;;;;;;;32.57;24.97;;;19.90;89.80;;;;;;4946651;28;21029;-42
2021/09/15 07:21:28;;;;;;;36.30;27.00;;;19.90;89.80;;;;;;4952971;28;20451;-43
2021/09/15 07:23:55;;;;;;;36.13;28.30;;;19.90;89.80;;;;;;4952184;29;20455;-43
2021/09/15 07:26:22;;;;;;;34.33;27.80;;;19.90;89.80;;;;;;4954956;28;20461;-43
2021/09/15 07:28:48;;;;;;;32.30;27.87;;;19.90;89.80;;;;;;4951529;28;20451;-43
2021/09/15 07:31:15;;;;;;;34.30;26.67;;;19.90;89.80;;;;;;4949538;28;20964;-43
2021/09/15 07:33:42;;;;;;;32.67;26.27;;;19.90;89.80;;;;;;4950800;28;20461;-43
2021/09/15 07:36:09;;;;;;;35.60;27.00;;;20.00;89.80;;;;;;4952878;28;20839;-43
2021/09/15 07:38:35;;;;;;;31.00;26.63;;;20.00;89.80;;;;;;4954135;28;20836;-43
2021/09/15 07:41:03;;;;;;;33.13;26.83;;;20.00;89.80;;;;;;4953602;28;20450;-43
2021/09/15 07:43:29;;;;;;;33.77;28.13;;;20.00;89.80;;;;;;4951412;28;20455;-42
2021/09/15 07:45:56;;;;;;;32.03;26.70;;;20.00;89.80;;;;;;4952524;29;20988;-42
2021/09/15 07:48:24;;;;;;;34.53;26.70;;;20.00;89.80;;;;;;4952173;28;20459;-42
2021/09/15 07:50:51;;;;;;;31.13;25.20;;;20.10;89.80;;;;;;4950602;28;20874;-43
2021/09/15 07:53:19;;;;;;;33.57;24.43;;;20.10;89.80;;;;;;4952539;28;20455;-42
2021/09/15 07:55:46;;;;;;;32.70;23.50;;;20.10;89.80;;;;;;4948481;28;20462;-42
2021/09/15 07:58:13;;;;;;;29.23;25.00;;;20.20;89.80;;;;;;4951119;28;20556;-42
2021/09/15 08:00:41;;;;;;;27.17;23.27;;;20.20;89.80;;;;;;4949373;28;20784;-42
2021/09/15 08:03:08;;;;;;;32.20;26.30;;;20.20;89.80;;;;;;4950825;28;20464;-42
2021/09/15 08:05:34;;;;;;;29.80;24.80;;;20.30;89.80;;;;;;4949606;28;21060;-42
2021/09/15 08:08:02;;;;;;;35.17;25.10;;;20.30;89.80;;;;;;4950926;28;20451;-42
2021/09/15 08:10:29;;;;;;;31.33;23.53;;;20.30;89.80;;;;;;4953546;28;20451;-42
2021/09/15 08:12:56;;;;;;;31.10;25.20;;;20.40;89.80;;;;;;4949170;28;20852;-42
2021/09/15 08:15:27;;;;;;;28.90;23.83;;;20.40;89.80;;;;;;4952496;28;20451;-42
2021/09/15 08:17:53;;;;;;;30.20;25.70;;;20.40;89.80;;;;;;4950767;28;20457;-42
2021/09/15 08:20:20;;;;;;;30.23;25.13;;;20.40;89.80;;;;;;4942574;28;20499;-42
2021/09/15 08:22:47;;;;;;;30.30;24.00;;;20.50;89.80;;;;;;4952771;28;20453;-42
2021/09/15 08:25:14;;;;;;;31.80;25.63;;;20.50;89.80;;;;;;4951146;28;20440;-42
2021/09/15 08:27:41;;;;;;;28.70;24.83;;;20.50;89.80;;;;;;4947734;28;20483;-42
2021/09/15 08:30:09;;;;;;;28.30;25.27;;;20.50;89.80;;;;;;4952292;28;20459;-42
2021/09/15 08:32:36;;;;;;;31.50;24.40;;;20.50;89.80;;;;;;4951236;28;20459;-43
2021/09/15 08:35:04;;;;;;;30.63;24.33;;;20.60;89.80;;;;;;4950542;28;20463;-42
2021/09/15 08:37:38;;;;;;;29.67;23.90;;;20.60;89.80;;;;;;4951719;28;20452;-43
2021/09/15 08:40:07;;;;;;;30.03;24.73;;;20.60;89.80;;;;;;4948543;28;20494;-43
2021/09/15 08:42:34;;;;;;;30.10;24.97;;;20.70;89.80;;;;;;4951034;28;20448;-42
2021/09/15 08:45:05;;;;;;;25.27;21.43;;;20.70;89.80;;;;;;4947868;28;20448;-42
2021/09/15 08:47:35;;;;;;;23.43;20.27;;;20.80;89.80;;;;;;4949826;28;20464;-42
2021/09/15 08:50:04;;;;;;;22.87;19.00;;;20.80;89.80;;;;;;4948130;28;20868;-43
2021/09/15 08:52:31;;;;;;;20.73;18.47;;;20.90;89.80;;;;;;4950887;28;20443;-43
2021/09/15 08:54:58;;;;;;;21.90;17.77;;;21.00;89.80;;;;;;4951262;28;20813;-42
2021/09/15 08:57:24;;;;;;;25.23;19.40;;;21.00;89.80;;;;;;4951950;28;20459;-43
2021/09/15 08:59:51;;;;;;;20.27;18.07;;;21.10;89.80;;;;;;4949784;29;20493;-43
2021/09/15 09:02:19;;;;;;;20.70;16.73;;;21.20;89.80;;;;;;4949758;28;20455;-42
2021/09/15 09:05:02;;;;;;;18.10;15.07;;;21.20;89.80;;;;;;4947167;28;20498;-43
2021/09/15 09:07:31;;;;;;;16.90;15.00;;;21.30;89.80;;;;;;4947832;28;20458;-43
2021/09/15 09:10:05;;;;;;;15.00;13.43;;;21.30;89.80;;;;;;4946171;28;20450;-43
2021/09/15 09:12:32;;;;;;;15.33;12.80;;;21.30;89.80;;;;;;4946106;28;20461;-43
2021/09/15 09:15:23;;;;;;;15.37;13.37;;;21.30;89.70;;;;;;4947713;28;20482;-43
2021/09/15 09:17:50;;;;;;;16.83;13.63;;;21.30;89.80;;;;;;4947236;28;20470;-43
2021/09/15 09:20:17;;;;;;;15.90;13.23;;;21.30;89.80;;;;;;4949493;28;20809;-42
2021/09/15 09:22:59;;;;;;;16.73;14.93;;;21.30;89.80;;;;;;4949865;28;20459;-42
2021/09/15 09:25:28;;;;;;;15.90;13.80;;;21.30;89.80;;;;;;4948133;28;20482;-42
2021/09/15 09:27:54;;;;;;;15.93;13.93;;;21.30;89.80;;;;;;4949592;29;20439;-42
2021/09/15 09:30:48;;;;;;;15.73;14.03;;;21.30;89.80;;;;;;4944984;28;20450;-42
2021/09/15 09:33:15;;;;;;;15.47;12.70;;;21.40;89.80;;;;;;4946288;28;20474;-42
2021/09/15 09:35:45;;;;;;;15.63;12.67;;;21.40;89.80;;;;;;4948974;28;20466;-42
2021/09/15 09:38:17;;;;;;;13.60;12.17;;;21.40;89.80;;;;;;4948770;28;20459;-42
2021/09/15 09:41:03;;;;;;;13.03;11.53;;;21.50;89.80;;;;;;4950148;28;20927;-43
2021/09/15 09:43:33;;;;;;;13.13;11.50;;;21.50;89.80;;;;;;4946376;28;20471;-43
2021/09/15 09:46:00;;;;;;;12.80;11.20;;;21.60;89.80;;;;;;4945974;28;20458;-43
2021/09/15 09:48:37;;;;;;;12.03;10.63;;;21.60;89.80;;;;;;4946800;28;20538;-43
2021/09/15 09:51:32;;;;;;;10.83;9.73;;;21.60;89.80;;;;;;4947514;28;20447;-43
2021/09/15 09:54:06;;;;;;;12.83;11.53;;;21.70;89.80;;;;;;4949247;28;20903;-43
2021/09/15 09:56:41;;;;;;;14.20;11.03;;;21.70;89.80;;;;;;4943521;28;20461;-43
2021/09/15 09:59:09;;;;;;;10.47;9.40;;;21.70;89.80;;;;;;4945957;28;21030;-43
2021/09/15 10:01:45;;;;;;;14.00;10.57;;;21.80;89.80;;;;;;4950654;28;20489;-43
2021/09/15 10:04:17;;;;;;;9.83;8.83;;;21.80;89.80;;;;;;4949017;28;20458;-43
2021/09/15 10:06:44;;;;;;;9.03;8.23;;;21.90;89.80;;;;;;4948750;29;20453;-43
2021/09/15 10:09:11;;;;;;;9.53;8.53;;;21.90;89.80;;;;;;4944882;28;20490;-43
2021/09/15 10:11:40;;;;;;;12.47;7.83;;;21.90;89.80;;;;;;4948135;28;20462;-43
2021/09/15 10:14:13;;;;;;;8.63;6.47;;;22.00;89.50;;;;;;4947208;28;20692;-43
2021/09/15 10:16:55;;;;;;;6.80;5.57;;;22.00;88.70;;;;;;4949283;28;20518;-43
2021/09/15 10:19:46;;;;;;;5.93;5.17;;;22.00;87.50;;;;;;4945601;29;20490;-42
2021/09/15 10:22:13;;;;;;;6.20;5.57;;;22.00;87.90;;;;;;4949366;28;20447;-43
2021/09/15 10:25:07;;;;;;;5.57;4.20;;;21.90;88.30;;;;;;4946848;28;20848;-43
2021/09/15 10:28:04;;;;;;;4.10;3.80;;;22.00;88.30;;;;;;4948192;28;20461;-43
2021/09/15 10:30:41;;;;;;;4.60;4.00;;;21.90;88.40;;;;;;4947411;28;20456;-43
2021/09/15 10:33:28;;;;;;;4.93;3.60;;;22.00;87.70;;;;;;4946567;28;20450;-43
2021/09/15 10:35:54;;;;;;;4.40;3.97;;;22.00;87.70;;;;;;4947198;28;20446;-42
2021/09/15 10:38:53;;;;;;;4.63;3.60;;;22.00;87.60;;;;;;4942517;28;20451;-42
2021/09/15 10:41:38;;;;;;;6.57;4.30;;;22.00;87.70;;;;;;4942547;28;20468;-42
2021/09/15 10:44:13;;;;;;;5.47;4.00;;;22.00;87.60;;;;;;4962291;28;20455;-42
2021/09/15 10:46:44;;;;;;;6.87;4.50;;;22.00;87.70;;;;;;4949132;28;20458;-42
2021/09/15 10:49:23;;;;;;;4.47;3.97;;;22.00;87.80;;;;;;4945212;28;20469;-43
2021/09/15 10:52:08;;;;;;;4.00;3.57;;;22.10;87.80;;;;;;4948648;28;20798;-43
2021/09/15 10:54:47;;;;;;;7.53;4.03;;;22.10;88.00;;;;;;4951482;28;20454;-43
2021/09/15 10:57:16;;;;;;;6.50;4.50;;;22.20;87.90;;;;;;4953491;28;20455;-43
2021/09/15 10:59:47;;;;;;;5.40;4.90;;;22.20;87.80;;;;;;4954050;28;20864;-43
2021/09/15 11:02:48;;;;;;;8.97;7.50;;;22.30;86.80;;;;;;4951358;28;20460;-43
2021/09/15 11:05:27;;;;;;;6.83;5.40;;;22.30;87.10;;;;;;4936458;28;20459;-43
2021/09/15 11:07:54;;;;;;;5.10;3.37;;;22.30;87.10;;;;;;4953252;28;20446;-43
2021/09/15 11:10:33;;;;;;;6.13;3.47;;;22.30;86.50;;;;;;4953488;28;20465;-43
2021/09/15 11:13:02;;;;;;;4.60;4.10;;;22.30;86.30;;;;;;4956339;28;21010;-43
2021/09/15 11:15:32;;;;;;;6.77;4.43;;;22.20;86.60;;;;;;4955639;28;20466;-43
2021/09/15 11:17:59;;;;;;;4.33;3.10;;;22.20;86.70;;;;;;4952575;28;20462;-43
2021/09/15 11:20:28;;;;;;;5.07;3.60;;;22.30;86.20;;;;;;4956657;28;20996;-43
2021/09/15 11:22:55;;;;;;;9.93;3.50;;;22.30;86.40;;;;;;4952868;28;20450;-43
2021/09/15 11:25:24;;;;;;;4.53;3.30;;;22.30;86.40;;;;;;4954009;29;21053;-43
2021/09/15 11:28:11;;;;;;;5.60;5.20;;;22.50;86.20;;;;;;4946909;28;20449;-43
2021/09/15 11:30:56;;;;;;;3.73;3.30;;;22.50;86.30;;;;;;4954588;28;20446;-43
2021/09/15 11:33:29;;;;;;;4.50;4.10;;;22.70;85.70;;;;;;4935950;28;20454;-43
2021/09/15 11:35:57;;;;;;;3.83;3.40;;;22.70;85.60;;;;;;4952823;28;20975;-43
2021/09/15 11:38:26;;;;;;;4.50;4.10;;;22.80;85.00;;;;;;4954811;28;20474;-43
2021/09/15 11:41:24;;;;;;;5.60;3.57;;;22.80;85.20;;;;;;4953637;28;20496;-43
2021/09/15 11:43:50;;;;;;;3.90;3.47;;;22.80;85.20;;;;;;4952152;28;20464;-43
2021/09/15 11:46:18;;;;;;;4.30;3.90;;;22.80;85.00;;;;;;4955284;28;20447;-43
2021/09/15 11:48:46;;;;;;;4.87;3.90;;;22.80;85.10;;;;;;4954313;28;20456;-43
2021/09/15 11:51:21;;;;;;;6.20;4.37;;;22.80;85.20;;;;;;4949961;28;20457;-43
2021/09/15 11:54:12;;;;;;;4.73;4.27;;;22.90;84.30;;;;;;4950587;28;20449;-43
2021/09/15 11:56:45;;;;;;;6.40;4.70;;;23.00;84.20;;;;;;4956182;28;20465;-43
2021/09/15 11:59:15;;;;;;;5.23;4.53;;;22.90;84.10;;;;;;4954608;28;20614;-43
2021/09/15 12:02:02;;;;;;;5.83;5.10;;;22.90;84.40;;;;;;4953636;28;20991;-43
2021/09/15 12:04:33;;;;;;;5.50;4.97;;;22.90;84.40;;;;;;4965636;28;20452;-43
2021/09/15 12:07:00;;;;;;;5.17;4.50;;;22.90;84.20;;;;;;4949250;28;20458;-42
2021/09/15 12:09:28;;;;;;;6.10;5.60;;;23.00;84.40;;;;;;4949122;28;20462;-43
2021/09/15 12:11:56;;;;;;;5.10;4.60;;;22.90;84.50;;;;;;4954099;28;20449;-43
2021/09/15 12:14:32;;;;;;;5.37;4.87;;;23.00;84.30;;;;;;4948423;28;20489;-43
2021/09/15 12:17:05;;;;;;;7.53;4.47;;;23.00;83.70;;;;;;4947337;28;20478;-43
2021/09/15 12:19:32;;;;;;;5.77;5.17;;;23.00;83.60;;;;;;4953961;28;20556;-43
2021/09/15 12:22:00;;;;;;;5.30;4.80;;;23.00;82.60;;;;;;4952637;28;20936;-43
2021/09/15 12:24:27;;;;;;;5.73;4.47;;;23.00;82.60;;;;;;4961224;28;20468;-42
2021/09/15 12:26:54;;;;;;;5.50;4.30;;;22.90;82.60;;;;;;4951445;28;20443;-42
2021/09/15 12:29:22;;;;;;;5.20;4.70;;;22.90;82.70;;;;;;4947518;28;20815;-43
2021/09/15 12:32:07;;;;;;;5.40;4.90;;;22.90;82.90;;;;;;4948710;28;20489;-42
2021/09/15 12:34:36;;;;;;;10.33;5.53;;;22.90;83.00;;;;;;4946909;28;20466;-42
2021/09/15 12:37:18;;;;;;;6.00;5.40;;;22.90;83.70;;;;;;4949200;28;20537;-43
2021/09/15 12:39:48;;;;;;;5.10;4.60;;;22.80;84.40;;;;;;4952323;28;20490;-43
2021/09/15 12:42:22;;;;;;;5.33;4.93;;;22.80;83.80;;;;;;4950650;28;20439;-43
2021/09/15 12:45:07;;;;;;;5.47;4.97;;;22.90;83.50;;;;;;4948390;28;20463;-43
2021/09/15 12:47:39;;;;;;;6.47;5.73;;;22.90;83.30;;;;;;4948780;29;20945;-42
2021/09/15 12:50:26;;;;;;;5.87;5.37;;;22.90;83.90;;;;;;4952051;28;20492;-43
2021/09/15 12:53:12;;;;;;;5.97;4.83;;;23.00;83.90;;;;;;4948988;28;20470;-43
2021/09/15 12:55:44;;;;;;;6.27;5.17;;;23.00;82.60;;;;;;4951388;28;20466;-43